Página principal
METAR-TAF:

METAR-TAF

Aeroportos :

Aeroporto Internacional Simón Bolívar

Caracas, Venezuela

latitude: 10-36N, longitude: 066-59W, altura: 43 m

Observação actual do tempo

O boletim foi feito há 50 minutos, às 21:00 UTC
Vento 3 kt de este
Temperatura 26°C
Humidade 79%
Pressão 1012 hPa
Visibilidade 10 km ou mais
Nuvens dispersasa uma altura de 1600 ft

METAR: SVMI 122100Z 09003KT 9999 SCT016 26/22 Q1012

Hora: 17:50 (21:50 UTC)

Previsão

O boletim foi feito há 5 horas e 50 minutos, às 16:00 UTC
Previsão válida de 12 às 18 UTC a 13 às 18 UTC
Vento 10 kt de este
Visibilidade 10 km ou mais
Nuvens fragmentadasa uma altura de 1600 ft
Tornando-se
de 12 às 18 UTC a 12 às 22 UTC
Vento 12 kt de este
Nuvens dispersasa uma altura de 1600 ft

TAF: SVMI 121600Z 1218/1318 09010KT 9999 BKN016 TX33/18Z TN24/09Z BECMG 1218/1222 09012KT SCT016

Observações e previsões do tempo de mais de 4000 aeroportos (mensagens METAR e TAF).

As estações disponíveis são os pontos amarelos e vermelhos sobre o mapa.

Mova o rato sobre o mapa para ver o nome da estação.

Depois clique no ponto para visualizar as observações e previsões meteorológicas.

Para alterar o mapa : clique nos botões verdes com uma cruz preta para aumentar o zoom; no botão verde com uma pitada de zoom; ou nas setas verdes para mapas adjacentes.


METAR-TAF: